sensor_id;sensor_type;location;lat;lon;timestamp;temperature;humidity
11656;DHT22;5884;43.618;1.438;2023-07-08T04:45:24;20.30;99.90
11656;DHT22;5884;43.618;1.438;2023-07-08T04:47:51;20.30;99.90
11656;DHT22;5884;43.618;1.438;2023-07-08T04:50:18;20.30;99.90
11656;DHT22;5884;43.618;1.438;2023-07-08T04:52:46;20.40;99.90
11656;DHT22;5884;43.618;1.438;2023-07-08T04:55:13;20.40;99.90
11656;DHT22;5884;43.618;1.438;2023-07-08T04:57:40;20.50;99.90
11656;DHT22;5884;43.618;1.438;2023-07-08T05:00:13;20.50;99.90
11656;DHT22;5884;43.618;1.438;2023-07-08T05:02:44;20.50;99.90
11656;DHT22;5884;43.618;1.438;2023-07-08T05:05:11;20.50;99.90
11656;DHT22;5884;43.618;1.438;2023-07-08T05:07:38;20.50;99.90
11656;DHT22;5884;43.618;1.438;2023-07-08T05:10:06;20.60;99.90
11656;DHT22;5884;43.618;1.438;2023-07-08T05:12:34;20.60;99.90
11656;DHT22;5884;43.618;1.438;2023-07-08T05:15:01;20.60;99.90
11656;DHT22;5884;43.618;1.438;2023-07-08T05:17:29;20.60;99.90
11656;DHT22;5884;43.618;1.438;2023-07-08T05:19:58;20.60;99.90
11656;DHT22;5884;43.618;1.438;2023-07-08T05:22:26;20.60;99.90
11656;DHT22;5884;43.618;1.438;2023-07-08T05:24:53;20.60;99.90
11656;DHT22;5884;43.618;1.438;2023-07-08T05:27:21;20.60;99.90
11656;DHT22;5884;43.618;1.438;2023-07-08T05:29:49;20.70;99.90
11656;DHT22;5884;43.618;1.438;2023-07-08T05:32:17;20.70;99.90
11656;DHT22;5884;43.618;1.438;2023-07-08T05:34:45;20.70;99.90
11656;DHT22;5884;43.618;1.438;2023-07-08T05:37:14;20.80;99.90
11656;DHT22;5884;43.618;1.438;2023-07-08T05:39:44;20.80;99.90
11656;DHT22;5884;43.618;1.438;2023-07-08T05:42:11;20.80;99.90
11656;DHT22;5884;43.618;1.438;2023-07-08T05:44:39;20.90;99.90
11656;DHT22;5884;43.618;1.438;2023-07-08T05:47:06;20.90;99.90
11656;DHT22;5884;43.618;1.438;2023-07-08T05:49:33;21.00;99.90
11656;DHT22;5884;43.618;1.438;2023-07-08T05:52:01;21.10;99.90
11656;DHT22;5884;43.618;1.438;2023-07-08T05:54:35;21.20;99.90
11656;DHT22;5884;43.618;1.438;2023-07-08T05:57:03;21.20;99.90
11656;DHT22;5884;43.618;1.438;2023-07-08T05:59:31;21.30;99.90
11656;DHT22;5884;43.618;1.438;2023-07-08T06:01:58;21.30;99.90
11656;DHT22;5884;43.618;1.438;2023-07-08T06:04:27;21.30;99.90
11656;DHT22;5884;43.618;1.438;2023-07-08T06:06:57;21.40;99.90
11656;DHT22;5884;43.618;1.438;2023-07-08T06:09:25;21.50;99.90
11656;DHT22;5884;43.618;1.438;2023-07-08T06:11:53;21.50;99.90
11656;DHT22;5884;43.618;1.438;2023-07-08T06:14:20;21.60;99.90
11656;DHT22;5884;43.618;1.438;2023-07-08T06:16:48;21.70;99.90
11656;DHT22;5884;43.618;1.438;2023-07-08T06:19:15;21.70;99.90
11656;DHT22;5884;43.618;1.438;2023-07-08T06:21:43;21.80;99.90
11656;DHT22;5884;43.618;1.438;2023-07-08T06:24:10;21.90;99.90
11656;DHT22;5884;43.618;1.438;2023-07-08T06:26:38;22.00;99.90
11656;DHT22;5884;43.618;1.438;2023-07-08T06:29:06;22.10;99.90
11656;DHT22;5884;43.618;1.438;2023-07-08T06:31:33;22.20;99.90
11656;DHT22;5884;43.618;1.438;2023-07-08T06:34:01;22.30;99.90
11656;DHT22;5884;43.618;1.438;2023-07-08T06:36:29;22.50;99.90
11656;DHT22;5884;43.618;1.438;2023-07-08T06:38:56;22.60;99.90
11656;DHT22;5884;43.618;1.438;2023-07-08T06:41:24;22.70;99.90
11656;DHT22;5884;43.618;1.438;2023-07-08T06:43:51;22.60;99.90
11656;DHT22;5884;43.618;1.438;2023-07-08T06:46:22;22.50;99.90
11656;DHT22;5884;43.618;1.438;2023-07-08T06:48:49;22.50;99.90
11656;DHT22;5884;43.618;1.438;2023-07-08T06:51:16;22.50;99.90
11656;DHT22;5884;43.618;1.438;2023-07-08T06:53:43;22.60;99.90
11656;DHT22;5884;43.618;1.438;2023-07-08T06:56:11;22.70;99.90
11656;DHT22;5884;43.618;1.438;2023-07-08T06:58:38;22.80;99.90
11656;DHT22;5884;43.618;1.438;2023-07-08T07:01:05;22.90;99.90
11656;DHT22;5884;43.618;1.438;2023-07-08T07:03:34;23.00;99.90
11656;DHT22;5884;43.618;1.438;2023-07-08T07:06:01;23.20;99.90
11656;DHT22;5884;43.618;1.438;2023-07-08T07:08:28;23.20;99.90
11656;DHT22;5884;43.618;1.438;2023-07-08T07:10:55;23.30;99.90
11656;DHT22;5884;43.618;1.438;2023-07-08T07:13:22;23.50;99.90
11656;DHT22;5884;43.618;1.438;2023-07-08T07:15:50;23.80;99.90
11656;DHT22;5884;43.618;1.438;2023-07-08T07:18:17;23.90;99.90
11656;DHT22;5884;43.618;1.438;2023-07-08T07:20:49;24.00;99.90
11656;DHT22;5884;43.618;1.438;2023-07-08T07:23:17;24.00;99.90
11656;DHT22;5884;43.618;1.438;2023-07-08T07:25:45;24.00;99.90
11656;DHT22;5884;43.618;1.438;2023-07-08T07:28:14;24.00;99.90
11656;DHT22;5884;43.618;1.438;2023-07-08T07:30:42;24.10;99.90
11656;DHT22;5884;43.618;1.438;2023-07-08T07:33:09;24.10;99.90
11656;DHT22;5884;43.618;1.438;2023-07-08T07:35:42;24.20;99.90
11656;DHT22;5884;43.618;1.438;2023-07-08T07:38:12;24.20;99.90
11656;DHT22;5884;43.618;1.438;2023-07-08T07:40:40;24.30;99.90
11656;DHT22;5884;43.618;1.438;2023-07-08T07:43:08;24.50;99.90
11656;DHT22;5884;43.618;1.438;2023-07-08T07:45:35;24.50;99.90
11656;DHT22;5884;43.618;1.438;2023-07-08T07:48:03;24.50;99.90
11656;DHT22;5884;43.618;1.438;2023-07-08T07:50:31;24.50;99.90
11656;DHT22;5884;43.618;1.438;2023-07-08T07:52:59;24.90;99.90
11656;DHT22;5884;43.618;1.438;2023-07-08T07:55:28;25.10;99.90
11656;DHT22;5884;43.618;1.438;2023-07-08T07:57:55;25.40;99.90
11656;DHT22;5884;43.618;1.438;2023-07-08T08:00:22;25.20;99.90
11656;DHT22;5884;43.618;1.438;2023-07-08T08:02:50;25.00;99.90
11656;DHT22;5884;43.618;1.438;2023-07-08T08:05:17;24.90;99.90
11656;DHT22;5884;43.618;1.438;2023-07-08T08:07:44;24.90;99.90
11656;DHT22;5884;43.618;1.438;2023-07-08T08:10:13;25.00;99.90
11656;DHT22;5884;43.618;1.438;2023-07-08T08:12:42;25.10;99.90
11656;DHT22;5884;43.618;1.438;2023-07-08T08:15:11;25.20;99.90
11656;DHT22;5884;43.618;1.438;2023-07-08T08:17:38;25.30;99.90
11656;DHT22;5884;43.618;1.438;2023-07-08T08:20:08;25.20;99.90
11656;DHT22;5884;43.618;1.438;2023-07-08T08:22:35;25.00;99.90
11656;DHT22;5884;43.618;1.438;2023-07-08T08:25:03;24.90;99.90
11656;DHT22;5884;43.618;1.438;2023-07-08T08:27:30;25.10;99.90
11656;DHT22;5884;43.618;1.438;2023-07-08T08:29:59;25.30;99.90
11656;DHT22;5884;43.618;1.438;2023-07-08T08:32:26;25.40;99.90
11656;DHT22;5884;43.618;1.438;2023-07-08T08:34:53;25.50;99.90
11656;DHT22;5884;43.618;1.438;2023-07-08T08:37:21;25.60;99.90
11656;DHT22;5884;43.618;1.438;2023-07-08T08:39:48;25.70;99.90
11656;DHT22;5884;43.618;1.438;2023-07-08T08:42:25;25.80;99.90
11656;DHT22;5884;43.618;1.438;2023-07-08T08:44:54;25.80;99.90
11656;DHT22;5884;43.618;1.438;2023-07-08T08:47:32;25.90;99.90
11656;DHT22;5884;43.618;1.438;2023-07-08T08:50:05;25.80;99.90
11656;DHT22;5884;43.618;1.438;2023-07-08T08:52:41;26.00;99.90
11656;DHT22;5884;43.618;1.438;2023-07-08T08:55:11;26.00;99.90
11656;DHT22;5884;43.618;1.438;2023-07-08T08:57:43;26.10;99.90
11656;DHT22;5884;43.618;1.438;2023-07-08T09:00:16;26.20;99.90
11656;DHT22;5884;43.618;1.438;2023-07-08T09:02:56;26.30;99.90
11656;DHT22;5884;43.618;1.438;2023-07-08T09:05:26;26.30;99.90
11656;DHT22;5884;43.618;1.438;2023-07-08T09:08:01;26.40;99.90
11656;DHT22;5884;43.618;1.438;2023-07-08T09:10:40;26.40;99.90
11656;DHT22;5884;43.618;1.438;2023-07-08T09:13:16;26.50;99.90
11656;DHT22;5884;43.618;1.438;2023-07-08T09:15:48;26.60;99.90
11656;DHT22;5884;43.618;1.438;2023-07-08T09:18:27;26.60;99.90
11656;DHT22;5884;43.618;1.438;2023-07-08T09:20:58;26.60;99.90
11656;DHT22;5884;43.618;1.438;2023-07-08T09:23:31;26.70;99.90
11656;DHT22;5884;43.618;1.438;2023-07-08T09:26:13;26.70;99.90
11656;DHT22;5884;43.618;1.438;2023-07-08T09:28:44;26.80;99.90
11656;DHT22;5884;43.618;1.438;2023-07-08T09:31:23;26.90;99.90
11656;DHT22;5884;43.618;1.438;2023-07-08T09:34:04;27.00;99.90
11656;DHT22;5884;43.618;1.438;2023-07-08T09:36:32;26.90;99.90
11656;DHT22;5884;43.618;1.438;2023-07-08T09:39:00;27.10;99.90
11656;DHT22;5884;43.618;1.438;2023-07-08T09:41:30;27.00;99.90
11656;DHT22;5884;43.618;1.438;2023-07-08T09:44:13;27.20;99.90
11656;DHT22;5884;43.618;1.438;2023-07-08T09:46:43;27.40;99.90
11656;DHT22;5884;43.618;1.438;2023-07-08T09:49:21;27.40;99.90
11656;DHT22;5884;43.618;1.438;2023-07-08T09:51:51;27.60;99.90
11656;DHT22;5884;43.618;1.438;2023-07-08T09:54:19;27.80;99.90
11656;DHT22;5884;43.618;1.438;2023-07-08T09:56:54;27.90;99.90
11656;DHT22;5884;43.618;1.438;2023-07-08T09:59:30;27.90;99.90
11656;DHT22;5884;43.618;1.438;2023-07-08T10:02:02;27.80;99.90
11656;DHT22;5884;43.618;1.438;2023-07-08T10:04:40;27.80;99.90
11656;DHT22;5884;43.618;1.438;2023-07-08T10:07:11;27.80;99.90
11656;DHT22;5884;43.618;1.438;2023-07-08T10:09:43;27.80;99.90
11656;DHT22;5884;43.618;1.438;2023-07-08T10:12:13;27.80;99.90
11656;DHT22;5884;43.618;1.438;2023-07-08T10:14:44;28.00;99.90
11656;DHT22;5884;43.618;1.438;2023-07-08T10:17:15;28.20;99.90
11656;DHT22;5884;43.618;1.438;2023-07-08T10:19:45;28.30;99.90
11656;DHT22;5884;43.618;1.438;2023-07-08T10:22:22;28.30;99.90
11656;DHT22;5884;43.618;1.438;2023-07-08T10:25:06;28.00;99.90
11656;DHT22;5884;43.618;1.438;2023-07-08T10:27:43;27.90;99.90
11656;DHT22;5884;43.618;1.438;2023-07-08T10:30:21;28.00;99.90
11656;DHT22;5884;43.618;1.438;2023-07-08T10:33:00;28.20;99.90
11656;DHT22;5884;43.618;1.438;2023-07-08T10:35:47;28.40;99.90
11656;DHT22;5884;43.618;1.438;2023-07-08T10:38:35;28.40;99.90
11656;DHT22;5884;43.618;1.438;2023-07-08T10:41:12;28.50;99.90
11656;DHT22;5884;43.618;1.438;2023-07-08T10:43:55;28.80;99.90
11656;DHT22;5884;43.618;1.438;2023-07-08T10:46:38;28.90;99.90
11656;DHT22;5884;43.618;1.438;2023-07-08T10:49:25;28.90;99.90
11656;DHT22;5884;43.618;1.438;2023-07-08T10:52:16;28.90;99.90
11656;DHT22;5884;43.618;1.438;2023-07-08T10:55:04;28.90;99.90
11656;DHT22;5884;43.618;1.438;2023-07-08T10:58:11;29.00;99.90
11656;DHT22;5884;43.618;1.438;2023-07-08T11:00:51;29.00;99.90
11656;DHT22;5884;43.618;1.438;2023-07-08T11:03:48;29.10;99.90
11656;DHT22;5884;43.618;1.438;2023-07-08T11:06:48;29.20;99.90
11656;DHT22;5884;43.618;1.438;2023-07-08T11:09:24;29.30;99.90
11656;DHT22;5884;43.618;1.438;2023-07-08T11:11:58;29.50;99.90
11656;DHT22;5884;43.618;1.438;2023-07-08T11:14:40;29.70;99.90
11656;DHT22;5884;43.618;1.438;2023-07-08T11:17:13;29.70;99.90
11656;DHT22;5884;43.618;1.438;2023-07-08T11:19:48;29.70;99.90
11656;DHT22;5884;43.618;1.438;2023-07-08T11:22:21;29.60;99.90
11656;DHT22;5884;43.618;1.438;2023-07-08T11:24:52;29.50;99.90
11656;DHT22;5884;43.618;1.438;2023-07-08T11:27:24;29.60;99.90
11656;DHT22;5884;43.618;1.438;2023-07-08T11:29:57;29.70;99.90
11656;DHT22;5884;43.618;1.438;2023-07-08T11:32:30;29.80;99.90
11656;DHT22;5884;43.618;1.438;2023-07-08T11:34:59;29.80;99.90
11656;DHT22;5884;43.618;1.438;2023-07-08T11:37:28;29.80;99.90
11656;DHT22;5884;43.618;1.438;2023-07-08T11:40:05;29.80;99.90
11656;DHT22;5884;43.618;1.438;2023-07-08T11:42:39;30.00;99.90
11656;DHT22;5884;43.618;1.438;2023-07-08T11:45:13;30.10;99.90
11656;DHT22;5884;43.618;1.438;2023-07-08T11:47:52;30.20;99.90
11656;DHT22;5884;43.618;1.438;2023-07-08T11:50:21;30.30;99.90
11656;DHT22;5884;43.618;1.438;2023-07-08T11:52:52;30.20;99.90
11656;DHT22;5884;43.618;1.438;2023-07-08T11:55:25;30.30;99.90
11656;DHT22;5884;43.618;1.438;2023-07-08T11:58:00;30.40;99.90
11656;DHT22;5884;43.618;1.438;2023-07-08T12:00:31;30.50;99.90
11656;DHT22;5884;43.618;1.438;2023-07-08T12:03:04;30.50;99.90
11656;DHT22;5884;43.618;1.438;2023-07-08T12:05:45;30.60;99.90
11656;DHT22;5884;43.618;1.438;2023-07-08T12:08:14;30.50;99.90
11656;DHT22;5884;43.618;1.438;2023-07-08T12:10:49;30.60;99.90
11656;DHT22;5884;43.618;1.438;2023-07-08T12:13:19;30.60;99.90
11656;DHT22;5884;43.618;1.438;2023-07-08T12:15:48;30.80;99.90
11656;DHT22;5884;43.618;1.438;2023-07-08T12:18:19;30.90;99.90
11656;DHT22;5884;43.618;1.438;2023-07-08T12:20:52;30.90;99.90
11656;DHT22;5884;43.618;1.438;2023-07-08T12:23:23;30.90;99.90
11656;DHT22;5884;43.618;1.438;2023-07-08T12:25:54;30.90;99.90
11656;DHT22;5884;43.618;1.438;2023-07-08T12:28:23;31.00;99.90
11656;DHT22;5884;43.618;1.438;2023-07-08T12:30:51;31.00;99.90
11656;DHT22;5884;43.618;1.438;2023-07-08T12:33:26;31.10;99.90
11656;DHT22;5884;43.618;1.438;2023-07-08T12:35:56;31.10;99.90
11656;DHT22;5884;43.618;1.438;2023-07-08T12:38:26;31.10;99.90
11656;DHT22;5884;43.618;1.438;2023-07-08T12:40:57;31.10;99.90
11656;DHT22;5884;43.618;1.438;2023-07-08T12:43:25;31.10;99.90
11656;DHT22;5884;43.618;1.438;2023-07-08T12:45:53;31.00;99.90
11656;DHT22;5884;43.618;1.438;2023-07-08T12:48:20;31.10;99.90
11656;DHT22;5884;43.618;1.438;2023-07-08T12:50:47;31.00;99.90
11656;DHT22;5884;43.618;1.438;2023-07-08T12:53:15;30.90;99.90
11656;DHT22;5884;43.618;1.438;2023-07-08T12:55:43;31.10;99.90
11656;DHT22;5884;43.618;1.438;2023-07-08T12:58:23;31.30;99.90
11656;DHT22;5884;43.618;1.438;2023-07-08T13:00:55;31.40;99.90
11656;DHT22;5884;43.618;1.438;2023-07-08T13:03:26;31.50;99.90
11656;DHT22;5884;43.618;1.438;2023-07-08T13:05:55;31.40;99.90
11656;DHT22;5884;43.618;1.438;2023-07-08T13:08:26;31.40;99.90
11656;DHT22;5884;43.618;1.438;2023-07-08T13:10:58;31.40;99.90
11656;DHT22;5884;43.618;1.438;2023-07-08T13:13:30;31.40;99.90
11656;DHT22;5884;43.618;1.438;2023-07-08T13:15:58;31.30;99.90
11656;DHT22;5884;43.618;1.438;2023-07-08T13:18:33;31.40;99.90
11656;DHT22;5884;43.618;1.438;2023-07-08T13:21:02;31.50;99.90
11656;DHT22;5884;43.618;1.438;2023-07-08T13:23:30;31.50;99.90
11656;DHT22;5884;43.618;1.438;2023-07-08T13:25:59;31.70;99.90
11656;DHT22;5884;43.618;1.438;2023-07-08T13:28:29;31.70;99.90
11656;DHT22;5884;43.618;1.438;2023-07-08T13:31:14;31.70;99.90
11656;DHT22;5884;43.618;1.438;2023-07-08T13:33:46;31.90;99.90
11656;DHT22;5884;43.618;1.438;2023-07-08T13:36:18;31.90;99.90
11656;DHT22;5884;43.618;1.438;2023-07-08T13:38:46;31.90;99.90
11656;DHT22;5884;43.618;1.438;2023-07-08T13:41:20;31.90;99.90
11656;DHT22;5884;43.618;1.438;2023-07-08T13:43:50;32.00;99.90
11656;DHT22;5884;43.618;1.438;2023-07-08T13:46:30;32.00;99.90
11656;DHT22;5884;43.618;1.438;2023-07-08T13:49:02;31.80;99.90
11656;DHT22;5884;43.618;1.438;2023-07-08T13:51:36;31.70;99.90
11656;DHT22;5884;43.618;1.438;2023-07-08T13:54:13;31.90;99.90
11656;DHT22;5884;43.618;1.438;2023-07-08T13:56:43;31.80;99.90
11656;DHT22;5884;43.618;1.438;2023-07-08T13:59:18;31.90;99.90
11656;DHT22;5884;43.618;1.438;2023-07-08T14:01:50;31.90;99.90
11656;DHT22;5884;43.618;1.438;2023-07-08T14:04:22;31.90;99.90
11656;DHT22;5884;43.618;1.438;2023-07-08T14:06:53;31.90;99.90
11656;DHT22;5884;43.618;1.438;2023-07-08T14:09:22;32.00;99.90
11656;DHT22;5884;43.618;1.438;2023-07-08T14:11:50;32.00;99.90
11656;DHT22;5884;43.618;1.438;2023-07-08T14:14:20;32.00;99.90
11656;DHT22;5884;43.618;1.438;2023-07-08T14:16:49;32.10;99.90
11656;DHT22;5884;43.618;1.438;2023-07-08T14:19:22;32.10;99.90
11656;DHT22;5884;43.618;1.438;2023-07-08T14:21:53;32.00;99.90
11656;DHT22;5884;43.618;1.438;2023-07-08T14:24:22;31.80;99.90
11656;DHT22;5884;43.618;1.438;2023-07-08T14:26:49;31.90;99.90
11656;DHT22;5884;43.618;1.438;2023-07-08T14:29:16;31.90;99.90
11656;DHT22;5884;43.618;1.438;2023-07-08T14:31:45;31.90;99.90
11656;DHT22;5884;43.618;1.438;2023-07-08T14:34:17;32.00;99.90
11656;DHT22;5884;43.618;1.438;2023-07-08T14:36:48;32.10;99.90
11656;DHT22;5884;43.618;1.438;2023-07-08T14:39:16;31.90;99.90
11656;DHT22;5884;43.618;1.438;2023-07-08T14:41:46;31.90;99.90
11656;DHT22;5884;43.618;1.438;2023-07-08T14:44:21;32.00;99.90
11656;DHT22;5884;43.618;1.438;2023-07-08T14:46:50;32.00;99.90
11656;DHT22;5884;43.618;1.438;2023-07-08T14:49:19;32.10;99.90
11656;DHT22;5884;43.618;1.438;2023-07-08T14:51:47;32.10;99.90
11656;DHT22;5884;43.618;1.438;2023-07-08T14:54:14;32.00;99.90
11656;DHT22;5884;43.618;1.438;2023-07-08T14:56:42;31.90;99.90
11656;DHT22;5884;43.618;1.438;2023-07-08T14:59:14;31.90;99.90
11656;DHT22;5884;43.618;1.438;2023-07-08T15:01:44;31.90;99.90
11656;DHT22;5884;43.618;1.438;2023-07-08T15:04:13;32.00;99.90
11656;DHT22;5884;43.618;1.438;2023-07-08T15:06:42;32.00;99.90
11656;DHT22;5884;43.618;1.438;2023-07-08T15:09:10;32.00;99.90
11656;DHT22;5884;43.618;1.438;2023-07-08T15:11:38;32.00;99.90
11656;DHT22;5884;43.618;1.438;2023-07-08T15:14:11;32.10;99.90
11656;DHT22;5884;43.618;1.438;2023-07-08T15:16:40;32.10;99.90
11656;DHT22;5884;43.618;1.438;2023-07-08T15:19:10;32.10;99.90
11656;DHT22;5884;43.618;1.438;2023-07-08T15:21:38;32.10;99.90
11656;DHT22;5884;43.618;1.438;2023-07-08T15:24:09;32.10;99.90
11656;DHT22;5884;43.618;1.438;2023-07-08T15:26:37;32.10;99.90
11656;DHT22;5884;43.618;1.438;2023-07-08T15:29:06;32.00;99.90
11656;DHT22;5884;43.618;1.438;2023-07-08T15:31:40;32.00;99.90
11656;DHT22;5884;43.618;1.438;2023-07-08T15:34:09;32.00;99.90
11656;DHT22;5884;43.618;1.438;2023-07-08T15:36:38;32.10;99.90
11656;DHT22;5884;43.618;1.438;2023-07-08T15:39:06;32.10;99.90
11656;DHT22;5884;43.618;1.438;2023-07-08T15:41:35;32.10;99.90
11656;DHT22;5884;43.618;1.438;2023-07-08T15:44:04;32.00;99.90
11656;DHT22;5884;43.618;1.438;2023-07-08T15:46:37;32.00;99.90
11656;DHT22;5884;43.618;1.438;2023-07-08T15:49:13;32.00;99.90
11656;DHT22;5884;43.618;1.438;2023-07-08T15:51:42;32.00;99.90
11656;DHT22;5884;43.618;1.438;2023-07-08T15:54:10;31.90;99.90
11656;DHT22;5884;43.618;1.438;2023-07-08T15:56:38;31.90;99.90
11656;DHT22;5884;43.618;1.438;2023-07-08T15:59:10;32.10;99.90
11656;DHT22;5884;43.618;1.438;2023-07-08T16:01:39;32.20;99.90
11656;DHT22;5884;43.618;1.438;2023-07-08T16:04:18;32.10;99.90
11656;DHT22;5884;43.618;1.438;2023-07-08T16:06:49;32.10;99.90
11656;DHT22;5884;43.618;1.438;2023-07-08T16:09:16;32.20;99.90
11656;DHT22;5884;43.618;1.438;2023-07-08T16:11:44;32.20;99.90
11656;DHT22;5884;43.618;1.438;2023-07-08T16:14:13;32.30;99.90
11656;DHT22;5884;43.618;1.438;2023-07-08T16:16:42;32.10;99.90
11656;DHT22;5884;43.618;1.438;2023-07-08T16:19:12;32.20;99.90
11656;DHT22;5884;43.618;1.438;2023-07-08T16:21:40;32.30;99.90
11656;DHT22;5884;43.618;1.438;2023-07-08T16:24:08;32.20;99.90
11656;DHT22;5884;43.618;1.438;2023-07-08T16:26:36;32.20;99.90
11656;DHT22;5884;43.618;1.438;2023-07-08T16:29:05;32.00;99.90
11656;DHT22;5884;43.618;1.438;2023-07-08T16:31:32;32.00;99.90
11656;DHT22;5884;43.618;1.438;2023-07-08T16:33:59;32.00;99.90
11656;DHT22;5884;43.618;1.438;2023-07-08T16:36:28;32.10;99.90
11656;DHT22;5884;43.618;1.438;2023-07-08T16:38:55;32.10;99.90
11656;DHT22;5884;43.618;1.438;2023-07-08T16:41:25;32.10;99.90
11656;DHT22;5884;43.618;1.438;2023-07-08T16:43:53;32.10;99.90
11656;DHT22;5884;43.618;1.438;2023-07-08T16:46:22;32.00;99.90
11656;DHT22;5884;43.618;1.438;2023-07-08T16:48:49;32.00;99.90
11656;DHT22;5884;43.618;1.438;2023-07-08T16:51:26;32.00;99.90
11656;DHT22;5884;43.618;1.438;2023-07-08T16:53:58;31.90;99.90
11656;DHT22;5884;43.618;1.438;2023-07-08T16:56:31;31.80;99.90
11656;DHT22;5884;43.618;1.438;2023-07-08T16:58:58;31.90;99.90
11656;DHT22;5884;43.618;1.438;2023-07-08T17:01:26;31.90;99.90
11656;DHT22;5884;43.618;1.438;2023-07-08T17:03:55;31.90;99.90
11656;DHT22;5884;43.618;1.438;2023-07-08T17:06:24;32.00;99.90
11656;DHT22;5884;43.618;1.438;2023-07-08T17:08:53;31.90;99.90
11656;DHT22;5884;43.618;1.438;2023-07-08T17:11:20;31.80;99.90
11656;DHT22;5884;43.618;1.438;2023-07-08T17:13:47;31.80;99.90
11656;DHT22;5884;43.618;1.438;2023-07-08T17:16:16;31.60;99.90
11656;DHT22;5884;43.618;1.438;2023-07-08T17:18:48;31.60;99.90
11656;DHT22;5884;43.618;1.438;2023-07-08T17:21:18;31.50;99.90
11656;DHT22;5884;43.618;1.438;2023-07-08T17:23:45;31.60;99.90
11656;DHT22;5884;43.618;1.438;2023-07-08T17:26:14;31.60;99.90
11656;DHT22;5884;43.618;1.438;2023-07-08T17:28:41;31.50;99.90
11656;DHT22;5884;43.618;1.438;2023-07-08T17:31:16;31.50;99.90
11656;DHT22;5884;43.618;1.438;2023-07-08T17:33:46;31.40;99.90
11656;DHT22;5884;43.618;1.438;2023-07-08T17:36:14;31.30;99.90
11656;DHT22;5884;43.618;1.438;2023-07-08T17:38:44;31.30;99.90
11656;DHT22;5884;43.618;1.438;2023-07-08T17:41:15;31.30;99.90
11656;DHT22;5884;43.618;1.438;2023-07-08T17:43:43;31.30;99.90
11656;DHT22;5884;43.618;1.438;2023-07-08T17:46:13;31.30;99.90
11656;DHT22;5884;43.618;1.438;2023-07-08T17:48:43;31.20;99.90
11656;DHT22;5884;43.618;1.438;2023-07-08T17:51:13;31.20;99.90
11656;DHT22;5884;43.618;1.438;2023-07-08T17:53:40;31.20;99.90
11656;DHT22;5884;43.618;1.438;2023-07-08T17:56:19;31.10;99.90
11656;DHT22;5884;43.618;1.438;2023-07-08T17:58:49;31.00;99.90
11656;DHT22;5884;43.618;1.438;2023-07-08T18:01:17;30.90;99.90
11656;DHT22;5884;43.618;1.438;2023-07-08T18:03:47;30.90;99.90
11656;DHT22;5884;43.618;1.438;2023-07-08T18:06:15;30.80;99.90
11656;DHT22;5884;43.618;1.438;2023-07-08T18:08:42;30.70;99.90
11656;DHT22;5884;43.618;1.438;2023-07-08T18:11:11;30.70;99.90
11656;DHT22;5884;43.618;1.438;2023-07-08T18:13:41;30.60;99.90
11656;DHT22;5884;43.618;1.438;2023-07-08T18:16:10;30.50;99.90
11656;DHT22;5884;43.618;1.438;2023-07-08T18:18:38;30.50;99.90
11656;DHT22;5884;43.618;1.438;2023-07-08T18:21:12;30.50;99.90
11656;DHT22;5884;43.618;1.438;2023-07-08T18:23:42;30.40;99.90
11656;DHT22;5884;43.618;1.438;2023-07-08T18:26:15;30.30;99.90
11656;DHT22;5884;43.618;1.438;2023-07-08T18:28:46;30.20;99.90
11656;DHT22;5884;43.618;1.438;2023-07-08T18:31:14;30.10;99.90
11656;DHT22;5884;43.618;1.438;2023-07-08T18:33:42;30.00;99.90
11656;DHT22;5884;43.618;1.438;2023-07-08T18:36:11;29.90;99.90
11656;DHT22;5884;43.618;1.438;2023-07-08T18:38:39;29.70;99.90
11656;DHT22;5884;43.618;1.438;2023-07-08T18:41:13;29.70;99.90
11656;DHT22;5884;43.618;1.438;2023-07-08T18:43:42;29.60;99.90
11656;DHT22;5884;43.618;1.438;2023-07-08T18:46:12;29.60;99.90
11656;DHT22;5884;43.618;1.438;2023-07-08T18:48:39;29.50;99.90
11656;DHT22;5884;43.618;1.438;2023-07-08T18:51:11;29.40;99.90
11656;DHT22;5884;43.618;1.438;2023-07-08T18:53:39;29.40;99.90
11656;DHT22;5884;43.618;1.438;2023-07-08T18:56:11;29.40;99.90
11656;DHT22;5884;43.618;1.438;2023-07-08T18:58:41;29.30;99.90
11656;DHT22;5884;43.618;1.438;2023-07-08T19:01:22;29.30;99.90
11656;DHT22;5884;43.618;1.438;2023-07-08T19:03:51;29.20;99.90
11656;DHT22;5884;43.618;1.438;2023-07-08T19:06:19;29.10;99.90
11656;DHT22;5884;43.618;1.438;2023-07-08T19:08:47;29.00;99.90
11656;DHT22;5884;43.618;1.438;2023-07-08T19:11:19;29.00;99.90
11656;DHT22;5884;43.618;1.438;2023-07-08T19:13:48;28.90;99.90
11656;DHT22;5884;43.618;1.438;2023-07-08T19:16:16;28.80;99.90
11656;DHT22;5884;43.618;1.438;2023-07-08T19:18:47;28.80;99.90
11656;DHT22;5884;43.618;1.438;2023-07-08T19:21:17;28.70;99.90
11656;DHT22;5884;43.618;1.438;2023-07-08T19:23:48;28.70;99.90
11656;DHT22;5884;43.618;1.438;2023-07-08T19:26:18;28.60;99.90
11656;DHT22;5884;43.618;1.438;2023-07-08T19:28:48;28.50;99.90
11656;DHT22;5884;43.618;1.438;2023-07-08T19:31:21;28.50;99.90
11656;DHT22;5884;43.618;1.438;2023-07-08T19:33:51;28.50;99.90
11656;DHT22;5884;43.618;1.438;2023-07-08T19:36:19;28.40;99.90
11656;DHT22;5884;43.618;1.438;2023-07-08T19:38:48;28.30;99.90
11656;DHT22;5884;43.618;1.438;2023-07-08T19:41:16;28.20;99.90
11656;DHT22;5884;43.618;1.438;2023-07-08T19:43:48;28.20;99.90
11656;DHT22;5884;43.618;1.438;2023-07-08T19:46:16;28.10;99.90
11656;DHT22;5884;43.618;1.438;2023-07-08T19:48:43;28.10;99.90
11656;DHT22;5884;43.618;1.438;2023-07-08T19:51:13;28.00;99.90
11656;DHT22;5884;43.618;1.438;2023-07-08T19:53:40;28.00;99.90
11656;DHT22;5884;43.618;1.438;2023-07-08T19:56:11;27.90;99.90
11656;DHT22;5884;43.618;1.438;2023-07-08T19:58:39;27.90;99.90
11656;DHT22;5884;43.618;1.438;2023-07-08T20:01:06;27.80;99.90
11656;DHT22;5884;43.618;1.438;2023-07-08T20:03:34;27.70;99.90
11656;DHT22;5884;43.618;1.438;2023-07-08T20:06:08;27.60;99.90
11656;DHT22;5884;43.618;1.438;2023-07-08T20:08:38;27.60;99.90
11656;DHT22;5884;43.618;1.438;2023-07-08T20:11:05;27.50;99.90
11656;DHT22;5884;43.618;1.438;2023-07-08T20:13:34;27.50;99.90
11656;DHT22;5884;43.618;1.438;2023-07-08T20:16:11;27.40;99.90
11656;DHT22;5884;43.618;1.438;2023-07-08T20:18:39;27.40;99.90
11656;DHT22;5884;43.618;1.438;2023-07-08T20:21:06;27.30;99.90
11656;DHT22;5884;43.618;1.438;2023-07-08T20:23:34;27.20;99.90
11656;DHT22;5884;43.618;1.438;2023-07-08T20:26:04;27.10;99.90
11656;DHT22;5884;43.618;1.438;2023-07-08T20:28:32;27.10;99.90
11656;DHT22;5884;43.618;1.438;2023-07-08T20:31:00;27.00;99.90
11656;DHT22;5884;43.618;1.438;2023-07-08T20:33:27;26.90;99.90
11656;DHT22;5884;43.618;1.438;2023-07-08T20:35:54;26.90;99.90
11656;DHT22;5884;43.618;1.438;2023-07-08T20:38:22;26.80;99.90
11656;DHT22;5884;43.618;1.438;2023-07-08T20:40:49;26.70;99.90
11656;DHT22;5884;43.618;1.438;2023-07-08T20:43:19;26.70;99.90
11656;DHT22;5884;43.618;1.438;2023-07-08T20:45:48;26.60;99.90
11656;DHT22;5884;43.618;1.438;2023-07-08T20:48:21;26.60;99.90
11656;DHT22;5884;43.618;1.438;2023-07-08T20:50:54;26.50;99.90